Time;durP1;ratioP1;P1;durP2;ratioP2;P2;SDS_P1;SDS_P2;PMS_P1;PMS_P2;Temp;Humidity;BMP_temperature;BMP_pressure;BME280_temperature;BME280_humidity;BME280_pressure;Samples;Min_cycle;Max_cycle;Signal;HPM_P1;HPM_P2
2022/05/20 00:01:03;;;;;;;;;0.75;0.75;;;;;23.86;36.51;101505.41;4930944;28;45528;-52
2022/05/20 00:03:29;;;;;;;;;2.00;2.00;;;;;23.84;36.55;101500.13;4943383;28;45379;-52
2022/05/20 00:05:55;;;;;;;;;4.00;1.75;;;;;23.82;36.38;101496.69;4943258;28;45258;-50
2022/05/20 00:08:21;;;;;;;;;2.00;2.00;;;;;23.79;36.34;101491.50;4948384;28;47076;-51
2022/05/20 00:10:46;;;;;;;;;1.50;1.50;;;;;23.78;36.56;101495.13;4943455;28;45228;-51
2022/05/20 00:13:12;;;;;;;;;2.00;2.00;;;;;23.76;36.43;101486.31;4943370;28;45263;-53
2022/05/20 00:15:37;;;;;;;;;3.50;2.00;;;;;23.75;36.51;101484.59;4943275;28;45272;-51
2022/05/20 00:18:03;;;;;;;;;3.00;2.00;;;;;23.72;36.43;101478.53;4943081;28;46834;-51
2022/05/20 00:20:29;;;;;;;;;3.75;3.00;;;;;23.70;36.61;101476.78;4945549;28;45236;-50
2022/05/20 00:22:55;;;;;;;;;1.25;1.25;;;;;23.68;36.63;101472.47;4943048;28;45250;-51
2022/05/20 00:28:06;;;;;;;;;3.00;2.75;;;;;23.61;36.67;101466.59;4942996;28;45395;-48
2022/05/20 00:30:32;;;;;;;;;2.00;1.00;;;;;23.58;36.55;101465.91;4943036;28;45262;-50
2022/05/20 00:32:58;;;;;;;;;2.00;2.00;;;;;23.57;36.67;101465.06;4942609;28;45389;-52
2022/05/20 00:35:24;;;;;;;;;2.75;2.00;;;;;23.57;36.87;101470.44;4942797;28;45571;-50
2022/05/20 00:37:50;;;;;;;;;2.50;2.50;;;;;23.53;36.77;101472.41;4942555;28;46160;-52
2022/05/20 00:40:18;;;;;;;;;2.00;2.00;;;;;23.51;36.65;101476.16;4942921;28;45442;-53
2022/05/20 00:42:44;;;;;;;;;2.00;2.00;;;;;23.48;36.86;101460.22;4942888;28;45547;-52
2022/05/20 00:45:10;;;;;;;;;2.50;2.50;;;;;23.48;36.81;101462.88;4942796;28;45195;-53
2022/05/20 00:47:36;;;;;;;;;5.00;5.00;;;;;23.46;37.02;101463.00;4942603;28;45559;-53
2022/05/20 00:50:07;;;;;;;;;2.00;1.50;;;;;23.43;36.89;101460.47;4942610;28;45307;-52
2022/05/20 00:52:36;;;;;;;;;2.25;1.50;;;;;23.42;36.84;101460.56;4929605;28;45220;-51
2022/05/20 00:55:10;;;;;;;;;1.50;1.25;;;;;23.39;36.96;101458.91;4925185;28;45476;-53
2022/05/20 00:57:40;;;;;;;;;3.25;2.25;;;;;23.36;36.93;101457.28;4942084;28;46317;-53
2022/05/20 01:00:13;;;;;;;;;2.50;2.00;;;;;23.35;37.23;101460.06;4935227;28;45302;-53
2022/05/20 01:02:40;;;;;;;;;2.00;2.00;;;;;23.33;37.00;101461.94;4942701;28;45259;-50
2022/05/20 01:05:15;;;;;;;;;4.00;2.00;;;;;23.29;37.11;101455.88;4942069;28;45428;-51
2022/05/20 01:07:41;;;;;;;;;2.00;2.00;;;;;23.28;37.06;101454.19;4925922;28;47655;-51
2022/05/20 01:10:07;;;;;;;;;4.00;2.00;;;;;23.28;37.25;101454.19;4946944;28;45230;-51
2022/05/20 01:12:32;;;;;;;;;2.00;2.00;;;;;23.26;37.13;101461.44;4942494;28;45287;-52
2022/05/20 01:14:58;;;;;;;;;0.00;0.00;;;;;23.22;37.12;101443.81;4942157;28;45241;-51
2022/05/20 01:17:23;;;;;;;;;4.00;2.00;;;;;23.22;37.27;101443.81;4942462;28;46175;-53
2022/05/20 01:19:53;;;;;;;;;2.75;2.00;;;;;23.22;37.14;101438.44;4945026;28;45339;-53
2022/05/20 01:22:36;;;;;;;;;1.25;1.25;;;;;23.19;37.24;101431.44;4942535;28;45411;-52
2022/05/20 01:25:04;;;;;;;;;3.00;1.75;;;;;23.18;36.96;101435.06;4941917;28;45403;-49
2022/05/20 01:27:29;;;;;;;;;2.25;2.00;;;;;23.17;37.34;101424.44;4942069;28;45465;-53
2022/05/20 01:29:54;;;;;;;;;2.00;2.00;;;;;23.14;37.10;101425.41;4941919;28;45393;-50
2022/05/20 01:32:20;;;;;;;;;3.00;2.50;;;;;23.13;37.36;101414.78;4942419;28;45373;-51
2022/05/20 01:34:45;;;;;;;;;2.50;2.50;;;;;23.11;37.34;101414.03;4924643;28;45406;-49
2022/05/20 01:37:11;;;;;;;;;4.00;2.75;;;;;23.09;37.01;101415.91;4942159;28;45408;-50
2022/05/20 01:39:37;;;;;;;;;2.00;2.00;;;;;23.07;37.51;101404.41;4941724;28;45227;-48
2022/05/20 01:42:28;;;;;;;;;3.25;2.50;;;;;23.03;37.17;101409.06;4932521;28;45211;-50
2022/05/20 01:45:06;;;;;;;;;1.25;1.25;;;;;23.01;37.55;101405.63;4930179;28;45444;-48
2022/05/20 01:47:44;;;;;;;;;1.00;1.00;;;;;22.94;37.56;101391.69;4941660;28;46843;-50
2022/05/20 01:50:19;;;;;;;;;1.50;1.50;;;;;22.95;37.35;101396.09;4924577;28;45208;-53
2022/05/20 01:53:05;;;;;;;;;1.50;1.25;;;;;22.90;37.54;101379.44;4927264;28;45397;-49
2022/05/20 01:55:40;;;;;;;;;3.50;3.00;;;;;22.89;37.10;101378.59;4941548;28;45693;-51
2022/05/20 01:58:14;;;;;;;;;2.00;2.00;;;;;22.91;37.51;101389.19;4941350;28;46381;-50
2022/05/20 02:00:43;;;;;;;;;1.50;1.50;;;;;22.89;37.48;101372.34;4941551;28;45259;-47
2022/05/20 02:03:17;;;;;;;;;2.00;1.75;;;;;22.85;37.32;101379.69;4924480;28;45359;-50
2022/05/20 02:05:57;;;;;;;;;1.25;1.25;;;;;22.86;37.02;101375.19;4924013;28;45362;-50
2022/05/20 02:08:34;;;;;;;;;2.00;2.00;;;;;22.83;37.86;101368.19;4927208;28;47264;-51
2022/05/20 02:11:17;;;;;;;;;1.50;1.25;;;;;22.81;37.47;101367.41;4924190;28;45340;-52
2022/05/20 02:14:15;;;;;;;;;2.00;2.00;;;;;22.78;37.48;101369.41;4941491;28;45311;-51
2022/05/20 02:16:44;;;;;;;;;1.00;1.00;;;;;22.76;37.23;101365.97;4941007;28;46357;-51
2022/05/20 02:19:17;;;;;;;;;2.00;2.00;;;;;22.72;37.91;101355.41;4941478;28;45366;-51
2022/05/20 02:21:49;;;;;;;;;1.00;1.00;;;;;22.72;37.38;101360.75;4938024;28;45274;-50
2022/05/20 02:24:21;;;;;;;;;2.50;2.00;;;;;22.70;37.67;101360.00;4941338;28;45212;-50
2022/05/20 02:26:52;;;;;;;;;3.25;2.00;;;;;22.69;37.66;101352.03;4941257;28;45257;-51
2022/05/20 02:29:23;;;;;;;;;2.00;1.50;;;;;22.68;37.78;101351.16;4941322;28;46519;-50
2022/05/20 02:32:04;;;;;;;;;2.00;2.00;;;;;22.67;37.30;101343.22;4941459;28;45295;-50
2022/05/20 02:34:29;;;;;;;;;4.00;1.25;;;;;22.66;37.88;101349.53;4940010;28;45376;-51
2022/05/20 02:36:55;;;;;;;;;1.00;1.00;;;;;22.64;37.83;101349.63;4941240;28;45397;-51
2022/05/20 02:39:21;;;;;;;;;2.00;2.00;;;;;22.64;37.86;101351.41;4940847;28;46143;-51
2022/05/20 02:41:49;;;;;;;;;1.00;1.00;;;;;22.63;37.69;101345.22;4941096;28;45318;-50
2022/05/20 02:44:15;;;;;;;;;2.50;2.50;;;;;22.61;37.74;101347.09;4941049;28;45175;-51
2022/05/20 02:46:46;;;;;;;;;4.25;2.75;;;;;22.57;38.08;101337.50;4941124;28;45311;-49
2022/05/20 02:49:11;;;;;;;;;5.25;3.00;;;;;22.57;37.91;101340.19;4940741;28;46336;-50
2022/05/20 02:51:36;;;;;;;;;4.50;2.25;;;;;22.56;38.12;101347.38;4932324;28;45247;-49
2022/05/20 02:54:02;;;;;;;;;3.00;2.00;;;;;22.55;38.37;101342.06;4936722;28;46057;-52
2022/05/20 02:56:27;;;;;;;;;3.00;1.75;;;;;22.54;37.93;101348.38;4943566;28;45437;-52
2022/05/20 03:04:21;;;;;;;;;3.00;3.00;;;;;22.47;38.13;101339.81;4932541;28;45466;-50
2022/05/20 03:06:51;;;;;;;;;2.25;2.00;;;;;22.49;38.21;101339.72;4943950;28;45168;-50
2022/05/20 03:09:21;;;;;;;;;2.25;2.25;;;;;22.48;38.22;101352.28;4950251;28;46567;-51
2022/05/20 03:11:47;;;;;;;;;4.25;3.25;;;;;22.47;38.38;101339.81;4944007;28;45395;-50
2022/05/20 03:14:15;;;;;;;;;3.75;3.25;;;;;22.47;37.80;101336.31;4944361;28;45323;-51
2022/05/20 03:16:41;;;;;;;;;3.75;2.00;;;;;22.46;37.98;101334.56;4942179;28;45472;-51
2022/05/20 03:19:08;;;;;;;;;3.75;2.75;;;;;22.45;38.43;101338.19;4944028;28;46093;-51
2022/05/20 03:21:34;;;;;;;;;2.00;2.00;;;;;22.43;38.50;101338.28;4946463;28;45390;-50
2022/05/20 03:24:00;;;;;;;;;1.00;1.00;;;;;22.42;38.55;101336.53;4944077;28;45362;-52
2022/05/20 03:26:26;;;;;;;;;3.50;2.00;;;;;22.40;38.20;101346.47;4943803;28;45380;-51
2022/05/20 03:28:52;;;;;;;;;3.25;3.25;;;;;22.38;38.28;101343.03;4936022;28;45945;-53
2022/05/20 03:31:17;;;;;;;;;3.25;2.00;;;;;22.36;38.59;101337.72;4943796;28;45216;-49
2022/05/20 03:33:43;;;;;;;;;4.25;2.00;;;;;22.36;38.48;101339.50;4944012;28;45424;-51
2022/05/20 03:36:10;;;;;;;;;3.25;2.50;;;;;22.34;38.28;101336.06;4943673;28;45228;-51
2022/05/20 03:38:35;;;;;;;;;4.00;4.00;;;;;22.31;38.60;101337.09;4943775;28;46908;-51
2022/05/20 03:41:02;;;;;;;;;4.00;2.50;;;;;22.29;38.74;101328.28;4943479;28;45384;-51
2022/05/20 03:43:28;;;;;;;;;3.00;1.50;;;;;22.24;38.63;101319.66;4944107;28;45350;-49
2022/05/20 03:45:54;;;;;;;;;3.00;2.50;;;;;22.26;38.55;101328.44;4943360;28;45528;-52
2022/05/20 03:48:20;;;;;;;;;4.00;2.50;;;;;22.24;38.36;101328.53;4943892;28;45399;-52
2022/05/20 03:50:46;;;;;;;;;3.75;3.50;;;;;22.22;38.53;101329.56;4941495;28;45414;-51
2022/05/20 03:53:11;;;;;;;;;3.00;2.00;;;;;22.20;38.57;101326.97;4932690;28;45299;-47
2022/05/20 03:55:37;;;;;;;;;3.25;3.25;;;;;22.19;38.77;101324.38;4943172;28;45568;-49
2022/05/20 03:58:03;;;;;;;;;3.00;3.00;;;;;22.18;38.70;101323.50;4943162;28;46028;-50
2022/05/20 04:00:28;;;;;;;;;2.00;2.00;;;;;22.16;38.85;101314.72;4943245;28;45180;-49
2022/05/20 04:02:54;;;;;;;;;3.25;3.00;;;;;22.15;38.94;101309.41;4943624;28;45230;-49
2022/05/20 04:05:19;;;;;;;;;3.00;3.00;;;;;22.14;38.99;101305.91;4925887;28;45274;-51
2022/05/20 04:07:45;;;;;;;;;2.00;2.00;;;;;22.12;38.73;101306.94;4943920;28;45526;-47
2022/05/20 04:10:10;;;;;;;;;4.00;3.25;;;;;22.11;38.94;101305.19;4947642;28;45172;-45
2022/05/20 04:12:42;;;;;;;;;2.25;2.25;;;;;22.10;38.98;101299.00;4943485;28;45347;-47
2022/05/20 04:15:13;;;;;;;;;3.25;2.00;;;;;22.10;39.11;101304.34;4943216;28;45444;-49
2022/05/20 04:17:38;;;;;;;;;3.25;2.25;;;;;22.08;39.11;101298.19;4943026;28;47433;-47
2022/05/20 04:20:05;;;;;;;;;2.75;2.25;;;;;22.07;38.89;101296.47;4945972;28;45316;-47
2022/05/20 04:22:33;;;;;;;;;2.00;2.00;;;;;22.06;39.19;101308.97;4943161;28;45406;-45
2022/05/20 04:24:59;;;;;;;;;4.00;3.00;;;;;22.04;39.25;101310.03;4925554;28;45489;-46
2022/05/20 04:27:24;;;;;;;;;3.75;2.00;;;;;22.04;39.31;101312.69;4922468;28;45846;-48
2022/05/20 04:29:50;;;;;;;;;3.25;3.25;;;;;22.02;39.06;101320.78;4940762;28;45433;-50
2022/05/20 04:32:15;;;;;;;;;3.00;3.00;;;;;22.01;38.94;101313.72;4943150;28;45546;-46
2022/05/20 04:34:41;;;;;;;;;5.00;3.00;;;;;22.02;39.16;101307.41;4942849;28;45433;-47
2022/05/20 04:37:07;;;;;;;;;3.25;3.25;;;;;22.00;38.96;101300.41;4925716;28;45315;-46
2022/05/20 04:39:33;;;;;;;;;5.00;3.50;;;;;21.97;39.18;101312.13;4942585;28;45262;-48
2022/05/20 04:47:29;;;;;;;;;3.00;3.00;;;;;21.99;39.06;101330.81;4942708;28;45418;-47
2022/05/20 04:49:55;;;;;;;;;3.25;3.25;;;;;21.97;39.27;101330.88;4925592;28;45360;-50
2022/05/20 04:52:21;;;;;;;;;3.25;3.25;;;;;22.00;39.14;101340.53;4929507;28;45304;-45
2022/05/20 04:54:50;;;;;;;;;2.00;1.00;;;;;22.02;39.33;101338.66;4942718;28;45328;-51
2022/05/20 04:57:19;;;;;;;;;3.50;3.00;;;;;22.03;39.24;101335.03;4942384;28;46133;-47
2022/05/20 17:59:19;;;;;;;;;4.00;4.00;;;;;25.68;38.18;101646.75;4997809;23;45315;-53
2022/05/20 18:01:45;;;;;;;;;7.50;5.75;;;;;25.61;38.49;101646.28;4941576;28;46049;-55
2022/05/20 18:04:11;;;;;;;;;5.50;3.75;;;;;25.54;37.92;101658.41;4956047;28;45283;-55
2022/05/20 18:06:37;;;;;;;;;2.75;2.75;;;;;25.41;37.65;101668.22;4941492;28;45534;-54
2022/05/20 18:09:03;;;;;;;;;3.00;3.00;;;;;25.26;38.10;101667.31;4934192;28;45427;-53
2022/05/20 18:11:29;;;;;;;;;6.00;6.00;;;;;25.01;37.88;101655.38;4904839;28;46024;-55
2022/05/20 18:13:54;;;;;;;;;4.00;2.50;;;;;24.93;37.77;101665.72;4922560;28;45321;-54
2022/05/20 18:16:20;;;;;;;;;3.00;3.00;;;;;24.73;37.81;101658.84;4917410;28;45936;-52
2022/05/20 18:18:45;;;;;;;;;3.00;3.00;;;;;24.58;37.79;101666.84;4922295;28;45483;-53
2022/05/20 18:21:12;;;;;;;;;3.75;3.00;;;;;24.37;37.80;101671.63;4923361;28;45414;-53
2022/05/20 18:23:37;;;;;;;;;2.00;2.00;;;;;24.18;37.73;101677.22;4921932;28;45425;-53
2022/05/20 18:26:04;;;;;;;;;4.00;3.75;;;;;23.99;37.99;101674.72;4921101;28;45329;-50
2022/05/20 18:28:31;;;;;;;;;3.00;2.75;;;;;23.83;37.91;101677.34;4915778;28;45577;-53
2022/05/20 18:31:00;;;;;;;;;4.75;2.25;;;;;23.69;38.06;101680.78;4921966;28;47284;-52
2022/05/20 18:33:27;;;;;;;;;3.50;3.50;;;;;23.54;37.92;101685.16;4911846;28;45475;-53
2022/05/20 18:41:21;;;;;;;;;3.00;3.00;;;;;23.11;38.03;101693.66;4921804;28;45785;-51
2022/05/20 18:43:47;;;;;;;;;2.00;2.00;;;;;23.02;38.35;101705.72;4921946;28;45461;-53
2022/05/20 18:46:13;;;;;;;;;3.50;2.25;;;;;22.89;38.06;101708.16;4920239;28;45264;-52
2022/05/20 18:48:40;;;;;;;;;2.50;2.00;;;;;22.85;38.10;101719.09;4915920;28;45339;-50
2022/05/20 18:51:07;;;;;;;;;2.75;2.75;;;;;22.75;38.28;101720.53;4926449;28;46212;-53
2022/05/20 18:53:32;;;;;;;;;3.25;3.00;;;;;22.61;38.39;101719.38;4923214;28;45374;-51
2022/05/20 18:55:58;;;;;;;;;3.00;3.00;;;;;22.51;38.42;101721.66;4921662;28;45477;-52
2022/05/20 18:58:24;;;;;;;;;2.25;2.00;;;;;22.35;38.47;101718.84;4921781;28;45321;-52
2022/05/20 19:00:49;;;;;;;;;5.75;5.00;;;;;22.26;38.47;101732.66;4921847;28;46059;-52
2022/05/20 19:05:58;;;;;;;;;4.00;3.00;;;;;21.94;38.67;101737.72;4921941;28;45429;-51
2022/05/20 19:08:24;;;;;;;;;5.00;4.00;;;;;21.81;38.51;101737.44;4918124;28;45531;-52
2022/05/20 19:10:50;;;;;;;;;3.00;3.00;;;;;21.68;38.47;101746.94;4927366;28;46206;-50
2022/05/20 19:13:16;;;;;;;;;6.50;4.50;;;;;21.55;38.45;101738.56;4921425;28;45341;-52
2022/05/20 19:15:41;;;;;;;;;44.50;38.25;;;;;21.45;38.81;101746.13;4921191;28;45375;-52
2022/05/20 19:18:07;;;;;;;;;36.75;33.25;;;;;21.33;39.24;101747.53;4909363;28;45415;-50
2022/05/20 19:20:33;;;;;;;;;45.00;39.50;;;;;21.19;39.03;101742.78;4929656;28;46817;-52
2022/05/20 19:22:58;;;;;;;;;67.00;54.00;;;;;21.12;39.27;101754.69;4921293;28;45236;-52
2022/05/20 19:25:24;;;;;;;;;9.50;5.00;;;;;21.02;39.17;101755.97;4921699;28;45240;-52
2022/05/20 19:27:50;;;;;;;;;21.50;20.25;;;;;20.93;39.12;101760.81;4939231;28;45325;-52
2022/05/20 19:30:17;;;;;;;;;6.25;5.00;;;;;20.82;38.92;101757.69;4940672;28;46054;-52
2022/05/20 19:32:43;;;;;;;;;9.50;5.75;;;;;20.70;39.62;101767.03;4940747;28;45163;-52
2022/05/20 19:35:10;;;;;;;;;2.00;2.00;;;;;20.63;39.14;101768.25;4940859;28;45409;-48
2022/05/20 19:37:36;;;;;;;;;5.25;5.25;;;;;20.52;39.74;101766.00;4941897;28;45562;-52
2022/05/20 19:40:02;;;;;;;;;7.00;5.75;;;;;20.49;39.37;101775.91;4943670;28;46322;-52
2022/05/20 19:42:28;;;;;;;;;4.00;4.00;;;;;20.40;39.54;101766.47;4943974;28;45441;-53
2022/05/20 19:44:53;;;;;;;;;4.50;4.50;;;;;20.35;39.53;101769.34;4940129;28;45497;-52
2022/05/20 19:47:21;;;;;;;;;7.25;5.75;;;;;20.27;40.03;101766.09;4942274;28;45506;-53
2022/05/20 19:49:47;;;;;;;;;8.50;7.00;;;;;20.20;39.87;101772.59;4941920;28;46956;-50
2022/05/20 19:52:12;;;;;;;;;6.50;6.50;;;;;20.16;39.71;101785.16;4947279;28;45631;-46
2022/05/20 19:54:38;;;;;;;;;6.50;6.00;;;;;20.08;39.85;101782.78;4942668;28;45771;-45
2022/05/20 20:02:39;;;;;;;;;7.75;3.00;;;;;19.94;40.31;101782.47;4943618;28;45251;-50
2022/05/20 20:05:05;;;;;;;;;3.00;3.00;;;;;19.92;40.42;101789.63;4939152;28;45280;-47
2022/05/20 20:07:30;;;;;;;;;7.00;7.00;;;;;19.89;40.60;101790.63;4936404;28;45520;-47
2022/05/20 20:09:56;;;;;;;;;4.00;4.00;;;;;19.84;40.55;101797.91;4925873;28;46795;-49
2022/05/20 20:12:21;;;;;;;;;3.50;3.50;;;;;19.79;40.46;101800.72;4941994;28;45437;-48
2022/05/20 20:14:46;;;;;;;;;3.25;3.25;;;;;19.74;40.77;101805.34;4925306;28;45638;-47
2022/05/20 20:17:12;;;;;;;;;7.00;5.75;;;;;19.70;40.46;101798.38;4943209;28;45306;-49
2022/05/20 20:19:38;;;;;;;;;6.50;6.50;;;;;19.67;40.56;101800.28;4946141;28;46315;-49
2022/05/20 20:27:32;;;;;;;;;4.25;4.25;;;;;19.54;41.16;101802.53;4928771;28;45201;-52
2022/05/20 20:29:58;;;;;;;;;5.00;5.00;;;;;19.48;40.78;101801.81;4938267;28;45228;-55
2022/05/20 20:32:24;;;;;;;;;6.00;6.00;;;;;19.44;40.68;101813.50;4925767;28;45465;-52
2022/05/20 20:34:50;;;;;;;;;6.25;5.75;;;;;19.41;40.90;101816.28;4938114;28;45254;-52
2022/05/20 20:37:16;;;;;;;;;5.00;5.00;;;;;19.39;40.90;101825.25;4942518;28;45382;-49
2022/05/20 20:39:41;;;;;;;;;5.00;5.00;;;;;19.34;40.94;101820.06;4942730;28;46295;-51
2022/05/20 20:42:07;;;;;;;;;7.25;6.00;;;;;19.34;41.38;101833.38;4942491;28;45519;-52
2022/05/20 20:44:32;;;;;;;;;8.75;6.25;;;;;19.31;41.36;101836.16;4941943;28;45615;-50
2022/05/20 20:46:57;;;;;;;;;5.25;4.25;;;;;19.28;41.55;101838.91;4942694;28;45570;-51
2022/05/20 20:49:23;;;;;;;;;5.75;4.75;;;;;19.25;41.64;101844.38;4942041;28;46047;-47
2022/05/20 20:51:50;;;;;;;;;4.00;3.75;;;;;19.23;41.31;101852.41;4942271;28;45186;-50
2022/05/20 20:54:17;;;;;;;;;4.00;4.00;;;;;19.21;41.38;101850.72;4942827;28;45227;-49
2022/05/20 20:56:43;;;;;;;;;2.50;2.00;;;;;19.16;41.29;101857.06;4942047;28;45426;-51
2022/05/20 20:59:09;;;;;;;;;5.25;3.25;;;;;19.16;41.60;101854.38;4942075;28;45993;-49
2022/05/20 21:01:37;;;;;;;;;4.00;4.00;;;;;19.13;41.42;101854.50;4938818;28;45425;-49
2022/05/20 21:04:02;;;;;;;;;6.75;4.50;;;;;19.11;41.56;101856.34;4942147;28;45301;-49
2022/05/20 21:06:30;;;;;;;;;2.50;2.50;;;;;19.07;41.82;101864.47;4924836;28;45951;-49
2022/05/20 21:08:55;;;;;;;;;5.00;4.00;;;;;19.06;41.73;101860.94;4942148;28;45368;-50
2022/05/20 21:11:21;;;;;;;;;4.00;4.00;;;;;19.04;41.84;101860.13;4945107;28;45144;-47
2022/05/20 21:13:46;;;;;;;;;2.75;2.75;;;;;19.03;41.67;101855.72;4943778;28;45761;-50
2022/05/20 21:16:12;;;;;;;;;3.00;3.00;;;;;19.02;42.02;101853.09;4945526;28;45394;-50
2022/05/20 21:18:37;;;;;;;;;6.00;4.25;;;;;19.01;42.18;101852.22;4942351;28;47039;-51
2022/05/20 21:21:03;;;;;;;;;4.25;4.25;;;;;18.98;41.69;101847.00;4951944;28;45358;-50
2022/05/20 21:23:30;;;;;;;;;3.75;3.75;;;;;19.01;42.08;101862.88;4943945;28;45307;-49
2022/05/20 21:25:56;;;;;;;;;3.00;3.00;;;;;18.99;42.19;101857.63;4945323;28;45410;-51
2022/05/20 21:28:22;;;;;;;;;4.75;3.75;;;;;19.00;42.29;101861.13;4926965;28;46853;-49
2022/05/20 21:30:47;;;;;;;;;5.00;5.00;;;;;18.99;42.13;101857.63;4949076;28;45329;-47
2022/05/20 21:33:13;;;;;;;;;7.50;6.25;;;;;19.00;41.87;101853.16;4941411;28;45459;-50
2022/05/20 21:35:40;;;;;;;;;4.75;3.50;;;;;19.02;41.99;101858.41;4943259;28;45344;-48
2022/05/20 21:38:06;;;;;;;;;7.00;5.00;;;;;19.01;42.18;101862.88;4945334;28;45419;-50
2022/05/20 21:40:32;;;;;;;;;6.00;5.00;;;;;19.00;42.28;101853.16;4947500;28;46113;-52
2022/05/20 21:42:58;;;;;;;;;8.00;5.75;;;;;18.98;42.16;101860.31;4945659;28;45284;-47
2022/05/20 21:45:25;;;;;;;;;5.00;4.75;;;;;18.95;42.27;101855.09;4948783;28;45351;-48
2022/05/20 21:47:53;;;;;;;;;5.75;5.75;;;;;18.95;42.62;101865.75;4928044;28;47070;-48
2022/05/20 21:50:19;;;;;;;;;6.25;5.00;;;;;18.93;42.05;101856.91;4948463;28;45250;-49
2022/05/20 21:52:45;;;;;;;;;6.75;5.00;;;;;18.94;42.27;101862.22;4926209;28;45405;-46
2022/05/20 21:55:12;;;;;;;;;5.25;4.00;;;;;18.97;42.16;101863.91;4948030;28;45216;-46
2022/05/20 21:57:39;;;;;;;;;5.25;4.25;;;;;18.97;42.27;101864.78;4944627;28;47096;-50
2022/05/20 22:00:08;;;;;;;;;6.50;5.50;;;;;18.98;42.33;101863.88;4947006;28;45344;-49
2022/05/20 22:08:43;;;;;;;;;5.50;5.00;;;;;19.02;42.49;101858.41;4942900;28;45513;-49
2022/05/20 22:10:59;;;;;;;;;5.25;4.75;;;;;19.02;42.48;101863.75;4943848;28;45240;-49
2022/05/20 22:13:25;;;;;;;;;7.50;6.25;;;;;18.96;42.45;101849.72;4938423;28;45264;-49
2022/05/20 22:15:50;;;;;;;;;4.25;3.75;;;;;18.96;42.33;101847.03;4939546;28;45563;-50
2022/05/20 22:18:15;;;;;;;;;6.75;5.00;;;;;18.95;42.61;101855.09;4942871;28;45312;-46
2022/05/20 22:20:41;;;;;;;;;5.00;4.00;;;;;18.91;42.83;101864.97;4950444;28;45209;-47
2022/05/20 22:23:06;;;;;;;;;5.00;4.00;;;;;18.90;42.78;101862.31;4938538;28;45244;-49
2022/05/20 22:25:31;;;;;;;;;4.75;4.75;;;;;18.90;42.86;101865.00;4922196;28;45886;-47
2022/05/20 22:27:57;;;;;;;;;8.25;6.75;;;;;18.88;42.75;101862.38;4947085;28;45254;-48
2022/05/20 22:30:22;;;;;;;;;4.25;4.25;;;;;18.88;42.65;101866.81;4948968;28;45163;-47
2022/05/20 22:32:47;;;;;;;;;5.00;5.00;;;;;18.89;42.74;101868.56;4950975;28;45496;-45
2022/05/20 22:35:13;;;;;;;;;7.75;6.00;;;;;18.89;42.75;101868.56;4940463;28;45490;-46
2022/05/20 22:37:42;;;;;;;;;6.75;6.75;;;;;18.88;42.67;101869.47;4950551;28;46175;-48
2022/05/20 22:40:09;;;;;;;;;8.00;5.75;;;;;18.88;42.86;101861.50;4947544;28;45389;-47
2022/05/20 22:42:34;;;;;;;;;5.75;4.75;;;;;18.86;42.84;101861.53;4945436;28;45330;-46
2022/05/20 22:45:00;;;;;;;;;7.50;6.00;;;;;18.84;43.20;101858.94;4946149;28;45299;-45
2022/05/20 22:47:25;;;;;;;;;6.50;6.00;;;;;18.84;43.17;101861.59;4950023;28;45738;-46
2022/05/20 22:49:50;;;;;;;;;2.50;2.25;;;;;18.86;43.23;101861.53;4950139;28;45262;-46
2022/05/20 22:52:16;;;;;;;;;10.00;7.50;;;;;18.86;43.17;101863.34;4947498;28;45240;-46
2022/05/20 22:57:25;;;;;;;;;7.50;7.25;;;;;18.84;42.97;101866.03;4946565;28;45361;-47
2022/05/20 22:59:52;;;;;;;;;10.50;8.00;;;;;18.83;42.95;101859.00;4951780;28;45347;-46
2022/05/20 23:02:17;;;;;;;;;7.75;7.00;;;;;18.82;43.49;101862.56;4946866;28;45236;-46
2022/05/20 23:04:42;;;;;;;;;6.75;6.75;;;;;18.78;43.45;101861.78;4947726;28;45167;-51
2022/05/20 23:07:09;;;;;;;;;6.50;6.50;;;;;18.75;43.62;101861.00;4942609;28;45366;-50
2022/05/20 23:09:34;;;;;;;;;9.50;9.50;;;;;18.72;43.59;101858.47;4945970;28;45251;-47
2022/05/20 23:12:00;;;;;;;;;5.75;5.75;;;;;18.68;43.44;101860.34;4940936;28;45358;-44
2022/05/20 23:14:25;;;;;;;;;9.00;6.75;;;;;18.66;43.28;101856.84;4939867;28;45419;-46
2022/05/20 23:16:51;;;;;;;;;7.25;5.75;;;;;18.65;43.61;101855.09;4943736;28;45388;-46
2022/05/20 23:19:16;;;;;;;;;8.75;8.25;;;;;18.63;43.44;101851.63;4944589;28;45474;-45
2022/05/20 23:21:42;;;;;;;;;5.00;5.00;;;;;18.63;43.60;101852.47;4944780;28;45305;-45
2022/05/20 23:24:07;;;;;;;;;8.00;8.00;;;;;18.62;43.81;101855.19;4944247;28;45559;-49
2022/05/20 23:26:33;;;;;;;;;9.00;7.00;;;;;18.61;43.65;101856.97;4943878;28;46088;-46
2022/05/20 23:28:59;;;;;;;;;10.75;7.00;;;;;18.59;43.50;101857.94;4943907;28;45347;-47
2022/05/20 23:31:25;;;;;;;;;7.50;7.50;;;;;18.60;43.99;101859.69;4939567;28;45202;-48
2022/05/20 23:33:50;;;;;;;;;8.25;7.25;;;;;18.59;43.58;101852.59;4935600;28;45422;-49
2022/05/20 23:39:00;;;;;;;;;8.00;8.00;;;;;18.58;43.68;101848.19;4943888;28;45231;-47
2022/05/20 23:41:26;;;;;;;;;7.00;7.00;;;;;18.58;43.65;101854.41;4944022;28;45295;-47
2022/05/20 23:43:52;;;;;;;;;7.25;6.00;;;;;18.57;44.09;101846.47;4943928;28;45449;-49
2022/05/20 23:46:18;;;;;;;;;8.00;8.00;;;;;18.58;43.84;101848.19;4943912;28;46039;-47
2022/05/20 23:48:43;;;;;;;;;8.00;6.50;;;;;18.57;43.88;101846.47;4943674;28;45327;-48
2022/05/20 23:51:08;;;;;;;;;10.00;7.75;;;;;18.57;43.94;101846.47;4944020;28;45412;-48
2022/05/20 23:53:34;;;;;;;;;10.75;8.75;;;;;18.55;43.63;101841.19;4943649;28;45506;-47
2022/05/20 23:58:43;;;;;;;;;6.50;6.00;;;;;18.55;43.85;101846.50;4943505;28;45240;-47
